sensor_id;sensor_type;location;lat;lon;timestamp;pressure;altitude;pressure_sealevel;temperature;humidity
53671;BME280;39571;48.612;8.088;2023-08-30T07:37:27;99221.97;;;17.37;100.00
53671;BME280;39571;48.612;8.088;2023-08-30T07:39:52;99217.34;;;17.59;100.00
53671;BME280;39571;48.612;8.088;2023-08-30T07:42:18;99213.75;;;17.78;100.00
53671;BME280;39571;48.612;8.088;2023-08-30T07:44:43;99213.75;;;17.95;100.00
53671;BME280;39571;48.612;8.088;2023-08-30T07:47:08;99208.44;;;18.12;100.00
53671;BME280;39571;48.612;8.088;2023-08-30T07:49:34;99208.03;;;18.35;100.00
53671;BME280;39571;48.612;8.088;2023-08-30T07:52:00;99216.69;;;18.72;100.00
53671;BME280;39571;48.612;8.088;2023-08-30T07:54:25;99208.22;;;18.81;100.00
53671;BME280;39571;48.612;8.088;2023-08-30T07:56:50;99216.44;;;18.92;100.00
53671;BME280;39571;48.612;8.088;2023-08-30T07:59:16;99204.72;;;18.96;100.00
53671;BME280;39571;48.612;8.088;2023-08-30T08:01:41;99203.34;;;18.89;100.00
53671;BME280;39571;48.612;8.088;2023-08-30T08:04:06;99219.25;;;18.89;100.00
53671;BME280;39571;48.612;8.088;2023-08-30T08:06:32;99224.88;;;19.14;100.00
53671;BME280;39571;48.612;8.088;2023-08-30T08:08:57;99213.75;;;19.23;100.00
53671;BME280;39571;48.612;8.088;2023-08-30T08:11:23;99222.28;;;19.28;100.00
53671;BME280;39571;48.612;8.088;2023-08-30T08:13:48;99214.47;;;19.56;100.00
53671;BME280;39571;48.612;8.088;2023-08-30T08:16:13;99210.56;;;19.78;100.00
53671;BME280;39571;48.612;8.088;2023-08-30T08:18:39;99206.06;;;20.22;100.00
53671;BME280;39571;48.612;8.088;2023-08-30T08:21:04;99204.22;;;20.93;100.00
53671;BME280;39571;48.612;8.088;2023-08-30T08:23:29;99194.50;;;21.60;100.00
53671;BME280;39571;48.612;8.088;2023-08-30T08:26:00;99196.81;;;22.04;100.00
53671;BME280;39571;48.612;8.088;2023-08-30T08:28:26;99200.09;;;22.45;100.00
53671;BME280;39571;48.612;8.088;2023-08-30T08:30:51;99204.13;;;21.88;100.00
53671;BME280;39571;48.612;8.088;2023-08-30T08:33:17;99196.22;;;21.86;100.00
53671;BME280;39571;48.612;8.088;2023-08-30T08:35:43;99197.53;;;21.93;100.00
53671;BME280;39571;48.612;8.088;2023-08-30T08:38:10;99193.94;;;22.32;100.00
53671;BME280;39571;48.612;8.088;2023-08-30T08:40:38;99197.56;;;22.44;100.00
53671;BME280;39571;48.612;8.088;2023-08-30T08:43:06;99209.00;;;22.95;100.00
53671;BME280;39571;48.612;8.088;2023-08-30T08:45:35;99210.28;;;23.49;100.00
53671;BME280;39571;48.612;8.088;2023-08-30T08:48:03;99203.88;;;24.44;100.00
53671;BME280;39571;48.612;8.088;2023-08-30T08:50:29;99204.47;;;24.58;100.00
53671;BME280;39571;48.612;8.088;2023-08-30T08:52:55;99199.19;;;25.55;100.00
53671;BME280;39571;48.612;8.088;2023-08-30T08:55:21;99199.47;;;25.94;100.00
53671;BME280;39571;48.612;8.088;2023-08-30T08:57:48;99202.09;;;26.46;100.00
53671;BME280;39571;48.612;8.088;2023-08-30T09:00:13;99206.69;;;27.05;100.00
53671;BME280;39571;48.612;8.088;2023-08-30T09:02:40;99208.97;;;26.70;100.00
53671;BME280;39571;48.612;8.088;2023-08-30T09:05:07;99212.75;;;26.97;100.00
53671;BME280;39571;48.612;8.088;2023-08-30T09:07:33;99216.56;;;27.44;100.00
53671;BME280;39571;48.612;8.088;2023-08-30T09:09:59;99219.84;;;27.08;100.00
53671;BME280;39571;48.612;8.088;2023-08-30T09:12:24;99220.94;;;26.66;99.81
53671;BME280;39571;48.612;8.088;2023-08-30T09:14:53;99216.13;;;26.90;100.00
53671;BME280;39571;48.612;8.088;2023-08-30T09:17:19;99227.03;;;26.98;93.52
53671;BME280;39571;48.612;8.088;2023-08-30T09:19:45;99225.94;;;26.80;100.00
53671;BME280;39571;48.612;8.088;2023-08-30T09:22:10;99225.41;;;27.35;100.00
53671;BME280;39571;48.612;8.088;2023-08-30T09:24:39;99215.84;;;27.52;90.63
53671;BME280;39571;48.612;8.088;2023-08-30T09:27:05;99227.59;;;27.80;81.71
53671;BME280;39571;48.612;8.088;2023-08-30T09:29:31;99221.53;;;27.68;79.03
53671;BME280;39571;48.612;8.088;2023-08-30T09:31:57;99215.72;;;27.53;74.27
53671;BME280;39571;48.612;8.088;2023-08-30T09:34:23;99217.34;;;27.26;73.72
53671;BME280;39571;48.612;8.088;2023-08-30T09:36:49;99212.91;;;26.66;78.75
53671;BME280;39571;48.612;8.088;2023-08-30T09:39:15;99217.56;;;26.33;86.81
53671;BME280;39571;48.612;8.088;2023-08-30T09:41:45;99212.94;;;25.62;94.20
53671;BME280;39571;48.612;8.088;2023-08-30T09:44:15;99220.19;;;24.85;100.00
53671;BME280;39571;48.612;8.088;2023-08-30T09:46:46;99216.31;;;24.10;100.00
53671;BME280;39571;48.612;8.088;2023-08-30T09:49:12;99218.53;;;23.46;100.00
53671;BME280;39571;48.612;8.088;2023-08-30T09:51:39;99205.88;;;23.25;100.00
53671;BME280;39571;48.612;8.088;2023-08-30T09:54:15;99212.03;;;22.78;100.00
53671;BME280;39571;48.612;8.088;2023-08-30T09:56:44;99207.38;;;22.43;100.00
53671;BME280;39571;48.612;8.088;2023-08-30T09:59:11;99207.38;;;22.18;100.00
53671;BME280;39571;48.612;8.088;2023-08-30T10:01:37;99213.88;;;21.62;100.00
53671;BME280;39571;48.612;8.088;2023-08-30T10:04:04;99212.31;;;20.92;100.00
53671;BME280;39571;48.612;8.088;2023-08-30T10:06:29;99208.31;;;20.99;100.00
53671;BME280;39571;48.612;8.088;2023-08-30T10:08:56;99201.84;;;21.03;100.00
53671;BME280;39571;48.612;8.088;2023-08-30T10:11:21;99196.69;;;21.14;100.00
53671;BME280;39571;48.612;8.088;2023-08-30T10:13:51;99195.56;;;21.31;100.00
53671;BME280;39571;48.612;8.088;2023-08-30T10:16:19;99186.25;;;21.11;100.00
53671;BME280;39571;48.612;8.088;2023-08-30T10:18:50;99191.94;;;21.05;100.00
53671;BME280;39571;48.612;8.088;2023-08-30T10:21:18;99186.34;;;21.36;100.00
53671;BME280;39571;48.612;8.088;2023-08-30T10:23:44;99189.16;;;21.60;100.00
53671;BME280;39571;48.612;8.088;2023-08-30T10:26:12;99179.97;;;21.91;100.00
53671;BME280;39571;48.612;8.088;2023-08-30T10:28:38;99171.94;;;21.78;100.00
53671;BME280;39571;48.612;8.088;2023-08-30T10:31:05;99179.59;;;21.70;100.00
53671;BME280;39571;48.612;8.088;2023-08-30T10:33:30;99168.13;;;21.30;100.00
53671;BME280;39571;48.612;8.088;2023-08-30T10:36:04;99175.00;;;21.59;100.00
53671;BME280;39571;48.612;8.088;2023-08-30T10:38:32;99162.16;;;22.04;100.00
53671;BME280;39571;48.612;8.088;2023-08-30T10:41:07;99163.94;;;22.41;100.00
53671;BME280;39571;48.612;8.088;2023-08-30T10:43:34;99151.88;;;22.48;100.00
53671;BME280;39571;48.612;8.088;2023-08-30T10:46:02;99154.44;;;22.50;100.00
53671;BME280;39571;48.612;8.088;2023-08-30T10:48:37;99163.44;;;22.11;100.00
53671;BME280;39571;48.612;8.088;2023-08-30T10:51:06;99154.69;;;21.96;100.00
53671;BME280;39571;48.612;8.088;2023-08-30T10:53:32;99158.78;;;22.02;100.00
53671;BME280;39571;48.612;8.088;2023-08-30T10:56:09;99153.09;;;21.94;100.00
53671;BME280;39571;48.612;8.088;2023-08-30T10:58:43;99154.88;;;21.81;100.00
53671;BME280;39571;48.612;8.088;2023-08-30T11:01:10;99155.63;;;21.70;100.00
53671;BME280;39571;48.612;8.088;2023-08-30T11:03:40;99155.09;;;21.78;100.00
53671;BME280;39571;48.612;8.088;2023-08-30T11:06:06;99144.91;;;21.97;100.00
53671;BME280;39571;48.612;8.088;2023-08-30T11:08:32;99137.44;;;22.02;100.00
53671;BME280;39571;48.612;8.088;2023-08-30T11:11:05;99137.81;;;21.58;100.00
53671;BME280;39571;48.612;8.088;2023-08-30T11:13:31;99140.63;;;21.82;100.00
53671;BME280;39571;48.612;8.088;2023-08-30T11:16:00;99133.16;;;21.61;100.00
53671;BME280;39571;48.612;8.088;2023-08-30T11:18:26;99134.41;;;21.68;100.00
53671;BME280;39571;48.612;8.088;2023-08-30T11:21:00;99129.97;;;21.82;100.00
53671;BME280;39571;48.612;8.088;2023-08-30T11:23:26;99130.84;;;21.95;100.00
53671;BME280;39571;48.612;8.088;2023-08-30T11:25:52;99128.47;;;21.65;100.00
53671;BME280;39571;48.612;8.088;2023-08-30T11:28:24;99126.63;;;21.65;100.00
53671;BME280;39571;48.612;8.088;2023-08-30T11:30:50;99121.41;;;21.77;100.00
53671;BME280;39571;48.612;8.088;2023-08-30T11:33:17;99111.63;;;21.64;100.00
53671;BME280;39571;48.612;8.088;2023-08-30T11:35:44;99121.41;;;21.77;100.00
53671;BME280;39571;48.612;8.088;2023-08-30T11:38:10;99112.91;;;21.72;100.00
53671;BME280;39571;48.612;8.088;2023-08-30T11:40:35;99116.63;;;21.56;100.00
53671;BME280;39571;48.612;8.088;2023-08-30T11:43:02;99110.31;;;21.45;100.00
53671;BME280;39571;48.612;8.088;2023-08-30T11:45:28;99109.81;;;21.78;100.00
53671;BME280;39571;48.612;8.088;2023-08-30T11:47:58;99104.94;;;22.09;100.00
53671;BME280;39571;48.612;8.088;2023-08-30T11:50:23;99098.91;;;22.31;100.00
53671;BME280;39571;48.612;8.088;2023-08-30T11:52:49;99097.34;;;22.52;100.00
53671;BME280;39571;48.612;8.088;2023-08-30T11:55:15;99100.81;;;22.65;100.00
53671;BME280;39571;48.612;8.088;2023-08-30T11:57:44;99100.50;;;22.34;100.00
53671;BME280;39571;48.612;8.088;2023-08-30T12:00:11;99089.84;;;22.21;100.00
53671;BME280;39571;48.612;8.088;2023-08-30T12:02:36;99087.81;;;22.25;100.00
53671;BME280;39571;48.612;8.088;2023-08-30T12:05:02;99082.53;;;22.12;100.00
53671;BME280;39571;48.612;8.088;2023-08-30T12:07:29;99076.84;;;22.29;100.00
53671;BME280;39571;48.612;8.088;2023-08-30T12:10:05;99083.13;;;22.64;100.00
53671;BME280;39571;48.612;8.088;2023-08-30T12:12:30;99090.84;;;22.56;100.00
53671;BME280;39571;48.612;8.088;2023-08-30T12:14:56;99091.75;;;22.81;100.00
53671;BME280;39571;48.612;8.088;2023-08-30T12:17:22;99093.03;;;22.99;100.00
53671;BME280;39571;48.612;8.088;2023-08-30T12:19:55;99080.03;;;23.29;100.00
